This is the latest recevied weather packets stored in our database for station/object DK6GC-10. If no packets are shown the sender has not sent any weather packets the latest 10 day(s).
| Time | Temp. | Humidity | Pressure | Rain* | Wind** | Luminosity | Snow |
|---|---|---|---|---|---|---|---|
| 1787477424 | 20° C | 62% | 1024.7 hPa | - | - | - | - |
| 1787476524 | 19.44° C | 62% | 1024.9 hPa | - | - | - | - |
| 1787475623 | 18.89° C | 65% | 1024.9 hPa | - | - | - | - |
| 1787474723 | 18.89° C | 67% | 1024.7 hPa | - | - | - | - |
| 1787473823 | 18.33° C | 71% | 1024.6 hPa | - | - | - | - |
| 1787472923 | 17.22° C | 71% | 1024.7 hPa | - | - | - | - |
| 1787472023 | 17.22° C | 73% | 1024.6 hPa | - | - | - | - |
| 1787471123 | 17.22° C | 72% | 1024.6 hPa | - | - | - | - |
| 1787470222 | 16.67° C | 76% | 1024.6 hPa | - | - | - | - |
| 1787469322 | 15.56° C | 78% | 1024.8 hPa | - | - | - | - |
| 1787468422 | 15.56° C | 81% | 1024.9 hPa | - | - | - | - |
| 1787467521 | 15.56° C | 75% | 1024.9 hPa | - | - | - | - |
| 1787466621 | 22.22° C | 53% | 1024.8 hPa | - | - | - | - |
| 1787465720 | 16.67° C | 72% | 1024.9 hPa | - | - | - | - |
| 1787464826 | 13.89° C | 80% | 1024.6 hPa | - | - | - | - |
| 1787463926 | 13.89° C | 81% | 1024.4 hPa | - | - | - | - |
| 1787463026 | 11.11° C | 95% | 1024.4 hPa | - | - | - | - |
| 1787462126 | 10° C | 97% | 1024.4 hPa | - | - | - | - |
| 1787461226 | 10° C | 96% | 1024.4 hPa | - | - | - | - |
| 1787460326 | 10° C | 97% | 1024.3 hPa | - | - | - | - |
| 1787459425 | 10° C | 97% | 1024.1 hPa | - | - | - | - |
| 1787458525 | 10° C | 95% | 1024 hPa | - | - | - | - |
| 1787457624 | 10° C | 97% | 1023.8 hPa | - | - | - | - |
| 1787456724 | 10° C | 96% | 1023.7 hPa | - | - | - | - |
| 1787455824 | 10° C | 96% | 1023.6 hPa | - | - | - | - |
* Rain since midnight (hover to see other rain measurements)
** Current wind speed in m/s (hover to see current wind gust speed)